createdAt,value
2023-03-03T00:01:25.370Z,-1.97
2023-03-03T00:04:26.877Z,-1.97
2023-03-03T00:07:28.417Z,-1.96
2023-03-03T00:10:29.969Z,-2.20
2023-03-03T00:13:32.109Z,-2.08
2023-03-03T00:16:40.665Z,-2.30
2023-03-03T00:19:42.285Z,-2.28
2023-03-03T00:22:43.905Z,-2.30
2023-03-03T00:25:45.837Z,-2.34
2023-03-03T00:28:48.713Z,-2.37
2023-03-03T00:31:50.210Z,-2.34
2023-03-03T00:34:53.130Z,-2.38
2023-03-03T00:37:56.493Z,-2.24
2023-03-03T00:40:57.975Z,-2.13
2023-03-03T00:43:59.487Z,-2.12
2023-03-03T00:47:11.252Z,-2.10
2023-03-03T00:50:12.558Z,-2.17
2023-03-03T00:53:17.218Z,-2.15
2023-03-03T00:56:18.737Z,-2.22
2023-03-03T00:59:20.303Z,-2.26
2023-03-03T01:02:21.867Z,-2.40
2023-03-03T01:05:23.376Z,-2.55
2023-03-03T01:08:24.874Z,-2.56
2023-03-03T01:11:26.666Z,-2.62
2023-03-03T01:14:28.220Z,-2.36
2023-03-03T01:17:29.749Z,-2.22
2023-03-03T01:20:31.225Z,-2.17
2023-03-03T01:23:32.836Z,-2.18
2023-03-03T01:26:34.326Z,-2.21
2023-03-03T01:29:35.830Z,-2.24
2023-03-03T01:32:37.369Z,-2.29
2023-03-03T01:35:43.863Z,-2.29
2023-03-03T01:38:45.400Z,-2.29
2023-03-03T01:41:46.928Z,-2.30
2023-03-03T01:44:48.447Z,-2.44
2023-03-03T01:48:03.292Z,-2.32
2023-03-03T01:51:26.297Z,-2.44
2023-03-03T01:54:34.202Z,-2.39
2023-03-03T01:57:38.272Z,-2.64
2023-03-03T02:00:41.360Z,-2.68
2023-03-03T02:03:43.656Z,-2.73
2023-03-03T02:06:47.988Z,-2.73
2023-03-03T02:09:57.237Z,-2.60
2023-03-03T02:12:59.914Z,-2.58
2023-03-03T02:16:01.424Z,-2.74
2023-03-03T02:19:04.834Z,-2.96
2023-03-03T02:22:06.321Z,-2.74
2023-03-03T02:25:08.543Z,-2.63
2023-03-03T02:28:10.113Z,-2.69
2023-03-03T02:31:15.585Z,-2.68
2023-03-03T02:34:17.712Z,-2.70
2023-03-03T02:37:19.398Z,-2.73
2023-03-03T02:40:20.922Z,-2.96
2023-03-03T02:43:22.670Z,-3.12
2023-03-03T02:46:24.208Z,-3.05
2023-03-03T02:49:32.090Z,-3.03
2023-03-03T02:52:33.565Z,-3.04
2023-03-03T02:55:35.067Z,-2.92
2023-03-03T02:58:37.098Z,-2.90
2023-03-03T03:01:38.704Z,-2.90
2023-03-03T03:04:40.291Z,-2.96
2023-03-03T03:07:41.873Z,-3.00
2023-03-03T03:10:43.411Z,-3.05
2023-03-03T03:13:45.088Z,-3.06
2023-03-03T03:16:46.621Z,-3.03
2023-03-03T03:19:48.144Z,-3.03
2023-03-03T03:22:49.680Z,-3.07
2023-03-03T03:25:51.169Z,-3.19
2023-03-03T03:28:52.767Z,-3.32
2023-03-03T03:31:54.309Z,-3.29
2023-03-03T03:34:55.814Z,-3.39
2023-03-03T03:37:57.349Z,-3.25
2023-03-03T03:40:58.905Z,-3.11
2023-03-03T03:44:00.373Z,-3.07
2023-03-03T03:47:01.893Z,-3.07
2023-03-03T03:50:03.585Z,-3.02
2023-03-03T03:53:05.955Z,-2.96
2023-03-03T03:56:07.750Z,-2.92
2023-03-03T03:59:09.243Z,-2.89
2023-03-03T04:02:10.908Z,-2.89
2023-03-03T04:05:12.514Z,-2.87
2023-03-03T04:08:14.000Z,-2.81
2023-03-03T04:11:15.518Z,-2.82
2023-03-03T04:14:17.019Z,-2.83
2023-03-03T04:17:22.306Z,-2.83
2023-03-03T04:20:23.787Z,-2.79
2023-03-03T04:23:25.263Z,-2.80
2023-03-03T04:26:26.890Z,-2.81
2023-03-03T04:29:28.368Z,-2.74
2023-03-03T04:32:30.462Z,-2.89
2023-03-03T04:35:32.008Z,-2.74
2023-03-03T04:38:33.510Z,-2.63
2023-03-03T04:41:35.324Z,-2.68
2023-03-03T04:44:36.930Z,-2.73
2023-03-03T04:47:38.411Z,-2.62
2023-03-03T04:50:39.889Z,-2.55
2023-03-03T04:53:41.406Z,-2.43
2023-03-03T04:56:42.955Z,-2.44
2023-03-03T04:59:44.586Z,-2.29
2023-03-03T05:02:47.472Z,-2.45
2023-03-03T05:05:48.965Z,-2.32
2023-03-03T05:08:50.486Z,-2.23
2023-03-03T05:11:51.993Z,-2.31
2023-03-03T05:14:53.465Z,-2.25
2023-03-03T05:17:56.454Z,-2.25
2023-03-03T05:20:58.178Z,-2.22
2023-03-03T05:23:59.662Z,-2.12
2023-03-03T05:27:01.129Z,-2.06
2023-03-03T05:30:02.926Z,-1.94
2023-03-03T05:33:05.048Z,-1.92
2023-03-03T05:36:06.901Z,-1.98
2023-03-03T05:39:08.427Z,-1.93
2023-03-03T05:42:11.309Z,-1.86
2023-03-03T05:45:13.009Z,-1.77
2023-03-03T05:48:14.538Z,-1.70
2023-03-03T05:51:16.011Z,-1.66
2023-03-03T05:54:17.533Z,-1.61
2023-03-03T05:57:19.055Z,-1.59
2023-03-03T06:00:20.859Z,-1.52
2023-03-03T06:03:22.496Z,-1.46
2023-03-03T06:06:24.022Z,-1.51
2023-03-03T06:09:26.308Z,-1.49
2023-03-03T06:12:27.850Z,-1.40
2023-03-03T06:15:29.398Z,-1.36
2023-03-03T06:18:30.990Z,-1.45
2023-03-03T06:21:32.489Z,-1.36
2023-03-03T06:24:34.301Z,-1.33
2023-03-03T06:27:35.795Z,-1.38
2023-03-03T06:30:37.324Z,-1.33
2023-03-03T06:33:38.999Z,-1.28
2023-03-03T06:36:40.471Z,-1.29
2023-03-03T06:39:41.984Z,-1.18
2023-03-03T06:42:43.468Z,-1.22
2023-03-03T06:45:45.616Z,-1.12
2023-03-03T06:48:47.178Z,-1.09
2023-03-03T06:51:48.702Z,-1.01
2023-03-03T06:54:51.078Z,-0.92
2023-03-03T06:57:55.791Z,-0.97
2023-03-03T07:00:58.161Z,-0.89
2023-03-03T07:03:59.712Z,-0.87
2023-03-03T07:07:10.700Z,-0.86
2023-03-03T07:10:27.886Z,-0.87
2023-03-03T07:13:29.853Z,-0.78
2023-03-03T07:16:31.410Z,-0.73
2023-03-03T07:19:36.050Z,-0.69
2023-03-03T07:22:37.518Z,-0.60
2023-03-03T07:25:39.063Z,-0.61
2023-03-03T07:29:14.383Z,-0.55
2023-03-03T07:32:18.841Z,-0.44
2023-03-03T07:35:41.026Z,-0.47
2023-03-03T07:38:42.736Z,-0.48
2023-03-03T07:41:44.225Z,-0.53
2023-03-03T07:44:48.775Z,-0.56
2023-03-03T07:47:50.257Z,-0.36
2023-03-03T07:50:51.969Z,-0.33
2023-03-03T07:53:55.272Z,-0.21
2023-03-03T07:56:59.201Z,-0.07
2023-03-03T08:00:19.128Z,-0.08
2023-03-03T08:03:20.838Z,-0.10
2023-03-03T08:06:47.193Z,-0.08
2023-03-03T08:09:56.751Z,0.09
2023-03-03T08:12:58.744Z,-0.05
2023-03-03T08:16:09.561Z,0.15
2023-03-03T08:19:11.316Z,0.22
2023-03-03T08:22:40.474Z,0.20
2023-03-03T08:25:42.460Z,0.48
2023-03-03T08:28:43.965Z,0.37
2023-03-03T08:31:45.488Z,0.41
2023-03-03T08:34:46.997Z,0.70
2023-03-03T08:37:48.466Z,0.85
2023-03-03T08:40:50.136Z,1.04
2023-03-03T08:43:51.797Z,0.99
2023-03-03T08:46:53.257Z,1.15
2023-03-03T08:49:54.875Z,1.37
2023-03-03T08:52:56.505Z,1.48
2023-03-03T08:55:58.219Z,1.58
2023-03-03T08:59:03.320Z,1.59
2023-03-03T09:02:06.309Z,1.57
2023-03-03T09:05:08.341Z,1.70
2023-03-03T09:08:10.724Z,1.66
2023-03-03T09:11:13.015Z,1.84
2023-03-03T09:14:15.913Z,1.72
2023-03-03T09:17:28.644Z,1.86
2023-03-03T09:20:43.954Z,1.92
2023-03-03T09:23:53.291Z,2.02
2023-03-03T09:26:55.125Z,2.12
2023-03-03T09:30:25.908Z,2.16
2023-03-03T09:33:33.366Z,2.43
2023-03-03T09:36:38.577Z,2.70
2023-03-03T09:39:40.068Z,2.70
2023-03-03T09:43:04.675Z,3.04
2023-03-03T09:46:24.453Z,3.09
2023-03-03T09:49:45.301Z,3.43
2023-03-03T09:52:50.699Z,3.45
2023-03-03T09:56:13.780Z,3.88
2023-03-03T09:59:39.744Z,3.86
2023-03-03T10:02:47.366Z,4.06
2023-03-03T10:06:11.820Z,4.07
2023-03-03T10:09:28.473Z,4.23
2023-03-03T10:12:36.805Z,4.17
2023-03-03T10:15:47.780Z,4.10
2023-03-03T10:19:02.312Z,4.15
2023-03-03T10:22:09.720Z,3.92
2023-03-03T10:25:22.544Z,4.04
2023-03-03T10:28:31.487Z,4.11
2023-03-03T10:31:54.948Z,4.26
2023-03-03T10:35:08.533Z,4.52
2023-03-03T10:38:31.182Z,4.72
2023-03-03T10:41:44.239Z,4.93
2023-03-03T10:44:51.768Z,5.03
2023-03-03T10:48:03.290Z,5.02
2023-03-03T10:51:17.888Z,5.01
2023-03-03T10:54:43.407Z,5.27
2023-03-03T10:58:12.825Z,5.57
2023-03-03T11:01:39.318Z,5.19
2023-03-03T11:04:52.682Z,5.57
2023-03-03T11:08:26.010Z,5.63
2023-03-03T11:11:42.033Z,5.51
2023-03-03T11:14:49.130Z,5.70
2023-03-03T11:18:09.436Z,5.55
2023-03-03T11:21:22.635Z,5.73
2023-03-03T11:24:31.168Z,6.00
2023-03-03T11:27:55.578Z,6.09
2023-03-03T11:31:14.187Z,6.09
2023-03-03T11:34:15.611Z,6.06
2023-03-03T11:37:20.156Z,6.11
2023-03-03T11:40:36.317Z,6.26
2023-03-03T11:43:46.765Z,7.69
2023-03-03T11:47:39.911Z,7.71
2023-03-03T11:50:47.570Z,7.89
2023-03-03T11:54:08.778Z,8.53
2023-03-03T11:57:27.209Z,7.99
2023-03-03T12:00:34.683Z,8.28
2023-03-03T12:03:45.490Z,7.69
2023-03-03T12:07:18.412Z,7.46
2023-03-03T12:10:53.071Z,6.92
2023-03-03T12:14:16.984Z,7.21
2023-03-03T12:17:56.133Z,6.99
2023-03-03T12:21:16.399Z,6.91
2023-03-03T12:24:24.460Z,6.43
2023-03-03T12:27:44.685Z,6.59
2023-03-03T12:31:18.218Z,6.71
2023-03-03T12:34:44.269Z,6.75
2023-03-03T12:38:23.172Z,6.19
2023-03-03T12:41:33.711Z,6.17
2023-03-03T12:44:42.744Z,6.18
2023-03-03T12:47:49.180Z,6.28
2023-03-03T12:51:25.554Z,6.23
2023-03-03T12:54:36.986Z,6.64
2023-03-03T12:58:12.717Z,6.12
2023-03-03T13:01:33.805Z,6.39
2023-03-03T13:04:39.253Z,7.22
2023-03-03T13:07:55.358Z,8.57
2023-03-03T13:11:01.849Z,8.10
2023-03-03T13:14:41.148Z,8.29
2023-03-03T13:17:58.457Z,8.47
2023-03-03T13:21:01.824Z,8.87
2023-03-03T13:24:16.089Z,8.77
2023-03-03T13:27:19.163Z,8.02
2023-03-03T13:30:23.283Z,7.15
2023-03-03T13:33:29.237Z,7.84
2023-03-03T13:36:35.327Z,8.21
2023-03-03T13:39:45.214Z,8.40
2023-03-03T13:42:55.697Z,8.43
2023-03-03T13:45:59.754Z,8.72
2023-03-03T13:49:17.057Z,8.97
2023-03-03T13:52:22.953Z,8.39
2023-03-03T13:55:41.831Z,9.42
2023-03-03T13:58:46.280Z,9.27
2023-03-03T14:01:55.794Z,8.45
2023-03-03T14:05:37.124Z,7.26
2023-03-03T14:09:00.427Z,6.97
2023-03-03T14:12:29.608Z,7.91
2023-03-03T14:15:45.062Z,8.61
2023-03-03T14:18:54.562Z,7.85
2023-03-03T14:22:16.236Z,7.22
2023-03-03T14:25:18.094Z,7.31
2023-03-03T14:28:21.492Z,6.99
2023-03-03T14:31:27.023Z,6.84
2023-03-03T14:34:37.034Z,6.86
2023-03-03T14:37:46.261Z,6.76
2023-03-03T14:40:47.968Z,6.78
2023-03-03T14:44:05.991Z,6.57
2023-03-03T14:47:10.476Z,6.55
2023-03-03T14:50:29.820Z,6.77
2023-03-03T14:53:38.663Z,6.94
2023-03-03T14:56:40.741Z,6.94
2023-03-03T15:00:10.691Z,6.92
2023-03-03T15:03:21.825Z,6.95
2023-03-03T15:06:36.848Z,6.83
2023-03-03T15:09:43.183Z,6.78
2023-03-03T15:12:45.003Z,6.82
2023-03-03T15:15:52.633Z,6.97
2023-03-03T15:19:30.849Z,7.00
2023-03-03T15:22:51.621Z,7.04
2023-03-03T15:26:00.802Z,7.29
2023-03-03T15:29:12.682Z,7.51
2023-03-03T15:32:19.343Z,7.62
2023-03-03T15:35:26.615Z,7.59
2023-03-03T15:38:35.580Z,7.52
2023-03-03T15:42:02.366Z,7.50
2023-03-03T15:45:37.610Z,7.57
2023-03-03T15:48:52.121Z,7.33
2023-03-03T15:52:03.683Z,7.58
2023-03-03T15:55:11.677Z,7.30
2023-03-03T15:58:33.951Z,7.80
2023-03-03T16:01:40.053Z,7.77
2023-03-03T16:04:49.858Z,7.82
2023-03-03T16:08:13.871Z,7.59
2023-03-03T16:11:21.914Z,7.58
2023-03-03T16:14:51.676Z,7.65
2023-03-03T16:18:11.879Z,7.52
2023-03-03T16:21:47.969Z,7.42
2023-03-03T16:25:24.942Z,7.33
2023-03-03T16:28:42.927Z,7.17
2023-03-03T16:31:50.005Z,7.12
2023-03-03T16:35:14.540Z,7.17
2023-03-03T16:38:27.392Z,6.89
2023-03-03T16:41:42.950Z,6.90
2023-03-03T16:45:09.409Z,6.37
2023-03-03T16:48:13.809Z,5.90
2023-03-03T16:51:30.710Z,5.84
2023-03-03T16:54:54.353Z,5.40
2023-03-03T16:58:12.851Z,5.30
2023-03-03T17:01:35.676Z,5.17
2023-03-03T17:04:40.010Z,5.18
2023-03-03T17:08:01.720Z,4.94
2023-03-03T17:11:21.872Z,4.55
2023-03-03T17:14:53.081Z,4.23
2023-03-03T17:18:27.477Z,4.06
2023-03-03T17:22:06.687Z,3.89
2023-03-03T17:25:21.416Z,3.73
2023-03-03T17:28:30.488Z,3.60
2023-03-03T17:32:00.018Z,3.55
2023-03-03T17:35:20.451Z,3.39
2023-03-03T17:39:00.053Z,3.20
2023-03-03T17:42:10.620Z,3.10
2023-03-03T17:45:15.976Z,3.13
2023-03-03T17:48:23.550Z,3.04
2023-03-03T17:51:32.784Z,2.98
2023-03-03T17:54:37.969Z,2.83
2023-03-03T17:58:02.260Z,2.72
2023-03-03T18:01:07.136Z,2.62
2023-03-03T18:04:11.683Z,2.50
2023-03-03T18:07:22.199Z,2.33
2023-03-03T18:10:43.049Z,2.24
2023-03-03T18:14:07.625Z,1.97
2023-03-03T18:17:45.595Z,1.87
2023-03-03T18:21:02.134Z,1.87
2023-03-03T18:24:25.476Z,1.82
2023-03-03T18:27:34.870Z,1.76
2023-03-03T18:30:58.471Z,1.66
2023-03-03T18:34:08.609Z,1.52
2023-03-03T18:37:37.020Z,1.41
2023-03-03T18:40:48.250Z,1.31
2023-03-03T18:43:52.669Z,1.20
2023-03-03T18:46:54.542Z,1.13
2023-03-03T18:50:15.739Z,1.15
2023-03-03T18:53:29.939Z,1.06
2023-03-03T18:56:50.689Z,0.85
2023-03-03T18:59:58.332Z,0.69
2023-03-03T19:02:59.938Z,0.59
2023-03-03T19:06:02.560Z,0.59
2023-03-03T19:09:05.740Z,0.58
2023-03-03T19:12:11.064Z,0.55
2023-03-03T19:15:35.986Z,0.48
2023-03-03T19:19:04.059Z,0.57
2023-03-03T19:22:24.587Z,0.48
2023-03-03T19:25:27.460Z,0.33
2023-03-03T19:28:41.250Z,0.23
2023-03-03T19:32:04.620Z,0.25
2023-03-03T19:35:27.666Z,0.25
2023-03-03T19:38:32.267Z,0.38
2023-03-03T19:42:01.648Z,0.44
2023-03-03T19:45:06.220Z,-0.09
2023-03-03T19:48:33.738Z,-0.04
2023-03-03T19:51:41.162Z,-0.19
2023-03-03T19:54:51.620Z,-0.19
2023-03-03T19:58:18.378Z,-0.22
2023-03-03T20:01:51.971Z,-0.18
2023-03-03T20:05:17.890Z,-0.18
2023-03-03T20:08:34.406Z,-0.17
2023-03-03T20:11:48.033Z,-0.23
2023-03-03T20:15:06.358Z,-0.37
2023-03-03T20:18:32.678Z,-0.27
2023-03-03T20:21:49.221Z,-0.19
2023-03-03T20:25:11.382Z,-0.38
2023-03-03T20:28:32.958Z,-0.44
2023-03-03T20:31:43.786Z,-0.38
2023-03-03T20:35:04.039Z,-0.40
2023-03-03T20:38:17.983Z,-0.77
2023-03-03T20:41:42.840Z,-0.85
2023-03-03T20:44:59.382Z,-0.85
2023-03-03T20:48:16.556Z,-0.81
2023-03-03T20:51:31.889Z,-1.03
2023-03-03T20:54:37.041Z,-1.10
2023-03-03T20:57:59.766Z,-0.77
2023-03-03T21:01:07.355Z,-1.02
2023-03-03T21:04:38.567Z,-1.08
2023-03-03T21:07:56.524Z,-0.87
2023-03-03T21:10:58.585Z,-0.67
2023-03-03T21:14:00.962Z,-0.72
2023-03-03T21:17:23.938Z,-0.84
2023-03-03T21:20:32.736Z,-0.88
2023-03-03T21:23:34.272Z,-0.88
2023-03-03T21:26:58.011Z,-1.09
2023-03-03T21:30:12.377Z,-1.22
2023-03-03T21:33:43.824Z,-1.35
2023-03-03T21:36:47.120Z,-1.52
2023-03-03T21:39:50.719Z,-1.56
2023-03-03T21:42:54.233Z,-1.56
2023-03-03T21:45:55.788Z,-1.60
2023-03-03T21:48:57.297Z,-1.62
2023-03-03T21:51:58.875Z,-1.51
2023-03-03T21:55:00.386Z,-1.28
2023-03-03T21:58:01.955Z,-1.34
2023-03-03T22:01:07.143Z,-1.27
2023-03-03T22:04:08.627Z,-1.34
2023-03-03T22:07:12.436Z,-1.34
2023-03-03T22:10:13.952Z,-1.41
2023-03-03T22:13:16.305Z,-1.48
2023-03-03T22:16:17.916Z,-1.49
2023-03-03T22:19:19.446Z,-1.53
2023-03-03T22:22:20.911Z,-1.44
2023-03-03T22:25:22.469Z,-1.43
2023-03-03T22:28:24.266Z,-1.43
2023-03-03T22:31:25.802Z,-1.41
2023-03-03T22:34:27.312Z,-1.36
2023-03-03T22:37:28.812Z,-1.44
2023-03-03T22:40:30.429Z,-1.38
2023-03-03T22:43:31.941Z,-1.44
2023-03-03T22:46:33.587Z,-1.52
2023-03-03T22:49:35.148Z,-1.56
2023-03-03T22:52:36.671Z,-1.66
2023-03-03T22:55:38.192Z,-1.74
2023-03-03T22:58:39.687Z,-1.79
2023-03-03T23:01:41.171Z,-1.83
2023-03-03T23:04:42.697Z,-1.79
2023-03-03T23:07:44.191Z,-1.83
2023-03-03T23:10:46.000Z,-1.94
2023-03-03T23:13:47.492Z,-2.06
2023-03-03T23:16:49.102Z,-2.06
2023-03-03T23:19:50.649Z,-2.07
2023-03-03T23:22:52.296Z,-2.06
2023-03-03T23:25:53.890Z,-2.07
2023-03-03T23:28:55.396Z,-1.95
2023-03-03T23:31:56.932Z,-1.94
2023-03-03T23:34:58.449Z,-1.89
2023-03-03T23:38:00.031Z,-1.99
2023-03-03T23:41:01.563Z,-2.00
2023-03-03T23:44:03.032Z,-2.08
2023-03-03T23:47:05.158Z,-2.10
2023-03-03T23:50:07.120Z,-2.14
2023-03-03T23:53:08.682Z,-2.33
2023-03-03T23:56:10.205Z,-2.31
2023-03-03T23:59:11.660Z,-2.21
